Time;durP1;ratioP1;P1;durP2;ratioP2;P2;SDS_P1;SDS_P2;PMS_P1;PMS_P2;Temp;Humidity;BMP_temperature;BMP_pressure;BME280_temperature;BME280_humidity;BME280_pressure;Samples;Min_cycle;Max_cycle;Signal;HPM_P1;HPM_P2
2021/12/26 00:01:13;;;;;;;15.03;5.53;;;;;;;-7.54;100.00;99159.53;1740578;82;21058;-65
2021/12/26 00:03:40;;;;;;;15.43;5.33;;;;;;;-7.55;100.00;99157.38;1741350;81;21078;-65
2021/12/26 00:06:12;;;;;;;14.47;6.30;;;;;;;-7.54;100.00;99160.85;1735449;82;20984;-65
2021/12/26 00:08:41;;;;;;;11.35;4.87;;;;;;;-7.55;100.00;99163.98;1733092;82;21090;-65
2021/12/26 00:11:08;;;;;;;12.63;5.40;;;;;;;-7.56;100.00;99171.58;1742412;82;20989;-65
2021/12/26 00:13:35;;;;;;;10.48;4.50;;;;;;;-7.63;100.00;99180.69;1738643;81;21586;-66
2021/12/26 00:16:02;;;;;;;10.20;4.30;;;;;;;-7.69;100.00;99172.63;1731462;82;21054;-66
2021/12/26 00:18:30;;;;;;;9.78;4.15;;;;;;;-7.71;100.00;99171.45;1736328;82;21026;-65
2021/12/26 00:20:57;;;;;;;8.78;3.47;;;;;;;-7.74;100.00;99173.61;1718209;82;21042;-66
2021/12/26 00:23:23;;;;;;;7.75;3.65;;;;;;;-7.81;100.00;99175.28;1736232;81;21030;-65
2021/12/26 00:25:49;;;;;;;;;;;;;;;-7.96;100.00;99183.55;1735726;82;21898;-65
2021/12/26 00:28:16;;;;;;;13.03;4.30;;;;;;;-8.10;100.00;99186.37;1728559;82;20170;-66
2021/12/26 00:30:42;;;;;;;12.28;4.60;;;;;;;-8.23;100.00;99187.39;1722613;82;21036;-65
2021/12/26 00:45:18;;;;;;;12.73;6.05;;;;;;;-6.89;100.00;99177.23;1780414;79;22573;-67
2021/12/26 00:47:44;;;;;;;11.63;5.40;;;;;;;-7.00;100.00;99182.91;1743365;82;21011;-67
2021/12/26 00:50:14;;;;;;;11.22;5.33;;;;;;;-7.20;100.00;99182.03;1748930;81;21971;-67
2021/12/26 00:52:41;;;;;;;14.30;6.75;;;;;;;-7.35;100.00;99181.58;1763503;81;20995;-67
2021/12/26 00:55:09;;;;;;;;;;;;;;;-7.49;100.00;99187.09;1762528;80;21529;-67
2021/12/26 00:57:36;;;;;;;12.33;5.65;;;;;;;-7.63;100.00;99186.47;1748847;81;20114;-67
2021/12/26 01:00:07;;;;;;;11.95;5.20;;;;;;;-7.76;100.00;99187.50;1764047;80;21061;-67
2021/12/26 01:02:35;;;;;;;12.82;5.17;;;;;;;-7.81;100.00;99181.89;1762234;81;21548;-67
2021/12/26 01:05:03;;;;;;;13.60;5.33;;;;;;;-7.86;100.00;99182.38;1763321;80;21054;-67
2021/12/26 01:09:58;;;;;;;9.80;4.45;;;;;;;-8.00;100.00;99178.27;1749818;81;21129;-67
2021/12/26 01:12:24;;;;;;;10.18;4.03;;;;;;;-8.07;100.00;99179.44;1763607;81;20994;-67
2021/12/26 01:14:58;;;;;;;9.40;4.28;;;;;;;-8.13;100.00;99179.63;1751941;80;21074;-67
2021/12/26 01:17:25;;;;;;;7.10;3.47;;;;;;;-8.20;100.00;99172.53;1750209;81;21077;-66
2021/12/26 01:19:54;;;;;;;8.80;3.65;;;;;;;-8.26;100.00;99175.84;1760428;80;21087;-67
2021/12/26 01:22:23;;;;;;;8.78;3.37;;;;;;;-8.36;100.00;99176.55;1764045;81;21014;-67
2021/12/26 01:24:56;;;;;;;7.70;3.22;;;;;;;-8.45;100.00;99173.55;1762196;80;21054;-67
2021/12/26 01:27:23;;;;;;;6.83;3.10;;;;;;;-8.53;100.00;99176.18;1764212;81;21475;-67
2021/12/26 01:29:50;;;;;;;8.15;3.42;;;;;;;-8.61;100.00;99183.63;1763634;80;21125;-67
2021/12/26 01:32:17;;;;;;;6.85;3.27;;;;;;;-8.69;100.00;99177.84;1763721;81;20979;-67
2021/12/26 01:35:04;;;;;;;7.72;3.45;;;;;;;-8.76;100.00;99174.20;1756343;81;21062;-67
2021/12/26 01:37:41;;;;;;;7.60;3.37;;;;;;;-8.82;100.00;99174.03;1740313;81;21507;-67
2021/12/26 01:40:27;;;;;;;6.67;3.10;;;;;;;-8.88;100.00;99178.13;1763853;80;21658;-67
2021/12/26 01:43:02;;;;;;;7.55;3.15;;;;;;;-8.93;100.00;99183.08;1761338;81;21565;-67
2021/12/26 01:45:39;;;;;;;5.85;2.83;;;;;;;-8.94;100.00;99190.65;1763493;81;21026;-68
2021/12/26 01:48:06;;;;;;;;;;;;;;;-8.96;100.00;99189.97;1767244;80;21406;-66
2021/12/26 01:50:35;;;;;;;7.25;2.77;;;;;;;-8.96;100.00;99191.81;1763168;81;20169;-68
2021/12/26 01:53:03;;;;;;;6.35;2.60;;;;;;;-9.02;100.00;99197.21;1764058;81;21034;-67
2021/12/26 01:58:09;;;;;;;7.60;2.62;;;;;;;-9.06;100.00;99194.56;1735250;80;21501;-67
2021/12/26 02:00:36;;;;;;;7.50;2.52;;;;;;;-9.04;100.00;99201.00;1763217;81;21050;-67
2021/12/26 02:03:03;;;;;;;7.50;3.35;;;;;;;-9.07;100.00;99198.69;1763388;81;21038;-68
2021/12/26 02:05:30;;;;;;;6.75;2.47;;;;;;;-9.11;100.00;99199.02;1763169;81;21626;-67
2021/12/26 02:07:59;;;;;;;7.20;2.92;;;;;;;-9.13;100.00;99192.23;1762479;81;20999;-68
2021/12/26 02:10:25;;;;;;;6.35;2.70;;;;;;;-9.17;100.00;99194.36;1763315;80;21085;-67
2021/12/26 02:12:52;;;;;;;8.23;3.12;;;;;;;-9.18;100.00;99195.86;1763518;81;21059;-68
2021/12/26 02:15:18;;;;;;;7.40;2.98;;;;;;;-9.20;100.00;99191.22;1763290;80;21064;-68
2021/12/26 02:17:53;;;;;;;6.85;2.98;;;;;;;-9.20;100.00;99200.45;1761264;81;21054;-67
2021/12/26 02:20:46;;;;;;;6.08;2.42;;;;;;;-9.22;100.00;99198.48;1763347;80;21540;-68
2021/12/26 02:23:13;;;;;;;8.30;2.62;;;;;;;-9.22;100.00;99202.43;1757573;80;21007;-67
2021/12/26 02:28:14;;;;;;;8.60;3.10;;;;;;;-9.27;100.00;99203.39;1763502;80;20990;-67
2021/12/26 02:30:40;;;;;;;8.83;3.02;;;;;;;-9.31;100.00;99192.33;1763298;81;21030;-68
2021/12/26 02:33:11;;;;;;;7.90;3.77;;;;;;;-9.36;100.00;99194.64;1763501;80;21504;-68
2021/12/26 02:35:35;;;;;;;8.00;3.37;;;;;;;-9.39;100.00;99197.59;1762928;81;21013;-67
2021/12/26 02:38:02;;;;;;;9.50;3.37;;;;;;;-9.41;100.00;99201.35;1763511;81;21010;-68
2021/12/26 02:40:30;;;;;;;9.33;3.40;;;;;;;-9.43;100.00;99205.48;1763363;81;21054;-68
2021/12/26 02:42:57;;;;;;;7.28;3.37;;;;;;;-9.44;100.00;99206.45;1763630;81;20986;-68
2021/12/26 02:45:23;;;;;;;8.20;3.65;;;;;;;-9.43;100.00;99204.65;1754629;80;21039;-68
2021/12/26 02:47:51;;;;;;;9.80;3.75;;;;;;;-9.44;100.00;99205.14;1752684;82;21078;-68
2021/12/26 02:50:24;;;;;;;12.35;4.78;;;;;;;-9.46;100.00;99209.75;1752363;80;21039;-68
2021/12/26 02:52:51;;;;;;;11.15;4.97;;;;;;;-9.48;100.00;99213.50;1751974;82;21026;-68
2021/12/26 02:55:20;;;;;;;14.45;4.00;;;;;;;-9.49;100.00;99207.92;1751989;80;21432;-67
2021/12/26 02:58:02;;;;;;;9.55;4.22;;;;;;;-9.46;100.00;99207.60;1752376;82;21612;-68
2021/12/26 03:00:38;;;;;;;9.13;3.85;;;;;;;-9.46;100.00;99212.88;1752474;80;21086;-67
2021/12/26 03:03:06;;;;;;;8.88;4.22;;;;;;;-9.42;100.00;99214.22;1749745;82;21632;-67
2021/12/26 03:05:38;;;;;;;9.35;3.90;;;;;;;-9.41;100.00;99208.77;1723048;82;21014;-67
2021/12/26 03:08:05;;;;;;;10.08;4.50;;;;;;;-9.39;100.00;99217.36;1752909;82;21497;-67
2021/12/26 03:10:32;;;;;;;11.88;4.80;;;;;;;-9.36;100.00;99224.12;1716905;83;21007;-68
2021/12/26 03:13:01;;;;;;;11.57;5.47;;;;;;;-9.37;100.00;99217.19;1717151;83;20995;-68
2021/12/26 03:15:30;;;;;;;12.00;5.47;;;;;;;-9.35;100.00;99220.51;1691022;83;21051;-67
2021/12/26 03:17:56;;;;;;;11.10;4.58;;;;;;;-9.35;100.00;99225.26;1677710;85;20995;-68
2021/12/26 03:20:27;;;;;;;12.03;5.08;;;;;;;-9.34;100.00;99234.83;1752686;80;21035;-67
2021/12/26 03:22:53;;;;;;;10.18;4.28;;;;;;;-9.32;100.00;99233.36;1752756;82;20956;-68
2021/12/26 03:25:21;;;;;;;10.38;4.65;;;;;;;-9.32;100.00;99230.73;1752544;80;21054;-68
2021/12/26 03:27:48;;;;;;;12.23;5.03;;;;;;;-9.32;100.00;99234.20;1752200;82;21050;-67
2021/12/26 03:30:22;;;;;;;13.03;5.70;;;;;;;-9.33;100.00;99227.27;1752417;80;21063;-67
2021/12/26 03:32:49;;;;;;;12.80;4.92;;;;;;;-9.34;100.00;99230.05;1723764;82;20991;-67
2021/12/26 03:35:16;;;;;;;11.50;5.33;;;;;;;-9.36;100.00;99230.70;1752564;80;21046;-67
2021/12/26 03:37:44;;;;;;;11.83;4.67;;;;;;;-9.35;100.00;99233.69;1752358;82;21033;-68
2021/12/26 03:40:29;;;;;;;12.82;5.30;;;;;;;-9.34;100.00;99232.68;1749391;80;21118;-67
2021/12/26 03:42:55;;;;;;;11.68;5.30;;;;;;;-9.34;100.00;99235.31;1746745;82;21006;-67
2021/12/26 03:45:21;;;;;;;11.80;5.00;;;;;;;-9.34;100.00;99235.31;1752553;80;21529;-68
2021/12/26 03:47:50;;;;;;;12.68;5.87;;;;;;;-9.35;100.00;99235.80;1752578;82;21014;-68
2021/12/26 03:50:19;;;;;;;11.83;5.30;;;;;;;-9.35;100.00;99240.27;1752456;80;21076;-68
2021/12/26 03:52:47;;;;;;;13.55;5.35;;;;;;;-9.36;100.00;99245.20;1752627;82;21368;-68
2021/12/26 03:55:15;;;;;;;15.30;6.00;;;;;;;-9.37;100.00;99242.22;1752516;80;21510;-67
2021/12/26 03:57:41;;;;;;;16.17;6.17;;;;;;;-9.40;100.00;99247.33;1752895;82;20975;-68
2021/12/26 04:00:09;;;;;;;16.12;6.60;;;;;;;-9.39;100.00;99245.52;1752287;80;21015;-67
2021/12/26 04:02:38;;;;;;;14.38;6.60;;;;;;;-9.38;100.00;99246.66;1752351;82;21486;-68
2021/12/26 04:05:05;;;;;;;14.47;5.85;;;;;;;-9.37;100.00;99252.77;1723503;82;21042;-67
2021/12/26 04:07:33;;;;;;;12.47;5.72;;;;;;;-9.38;100.00;99251.94;1752549;82;21006;-67
2021/12/26 04:10:00;;;;;;;;;;;;;;;-9.36;100.00;99250.48;1754814;80;21897;-67
2021/12/26 04:12:29;;;;;;;11.45;5.25;;;;;;;-9.38;100.00;99253.25;1752709;82;20130;-68
2021/12/26 04:14:54;;;;;;;13.38;4.75;;;;;;;-9.44;100.00;99251.74;1752560;80;21494;-67
2021/12/26 04:17:21;;;;;;;14.60;5.55;;;;;;;-9.47;100.00;99255.53;1752423;82;21026;-68
2021/12/26 04:19:48;;;;;;;12.80;5.12;;;;;;;-9.48;100.00;99262.25;1752476;80;21066;-67
2021/12/26 04:22:15;;;;;;;11.97;5.17;;;;;;;-9.51;100.00;99263.89;1753065;82;21002;-68
2021/12/26 04:24:42;;;;;;;11.78;5.67;;;;;;;-9.53;100.00;99257.48;1752473;80;21047;-67
2021/12/26 04:27:09;;;;;;;11.28;5.15;;;;;;;-9.57;100.00;99265.84;1752451;82;20991;-68
2021/12/26 04:29:35;;;;;;;10.95;5.53;;;;;;;-9.60;100.00;99272.25;1752568;80;21563;-67
2021/12/26 04:32:02;;;;;;;13.08;5.10;;;;;;;-9.61;100.00;99264.00;1752731;82;21018;-68
2021/12/26 04:34:29;;;;;;;13.75;5.97;;;;;;;-9.61;100.00;99274.06;1750828;80;21079;-67
2021/12/26 04:36:56;;;;;;;14.15;6.00;;;;;;;-9.61;100.00;99277.18;1749018;82;20995;-68
2021/12/26 04:39:22;;;;;;;11.95;5.47;;;;;;;-9.62;100.00;99280.78;1752262;80;21051;-68
2021/12/26 04:41:48;;;;;;;11.28;5.70;;;;;;;-9.63;100.00;99282.59;1752780;82;21050;-68
2021/12/26 04:44:34;;;;;;;14.15;6.55;;;;;;;-9.60;100.00;99277.52;1754084;80;21054;-67
2021/12/26 04:47:19;;;;;;;12.85;5.45;;;;;;;-9.57;100.00;99277.70;1761071;81;21588;-67
2021/12/26 04:49:46;;;;;;;19.80;7.53;;;;;;;-9.56;100.00;99285.42;1760909;80;21070;-67
2021/12/26 04:52:14;;;;;;;14.60;6.53;;;;;;;-9.53;100.00;99286.46;1761319;81;20987;-67
2021/12/26 04:54:40;;;;;;;14.75;6.17;;;;;;;-9.47;100.00;99291.59;1759847;80;21066;-67
2021/12/26 04:57:07;;;;;;;12.90;5.83;;;;;;;-9.47;100.00;99291.59;1761082;81;21065;-67
2021/12/26 04:59:33;;;;;;;16.17;7.67;;;;;;;-9.45;100.00;99285.17;1758722;80;21109;-67
2021/12/26 05:02:01;;;;;;;13.83;5.97;;;;;;;-9.41;100.00;99287.00;1760967;81;21655;-67
2021/12/26 05:04:27;;;;;;;13.05;6.45;;;;;;;-9.39;100.00;99285.89;1761153;80;21322;-68
2021/12/26 05:06:54;;;;;;;15.63;6.95;;;;;;;-9.36;100.00;99288.70;1756170;81;21025;-68
2021/12/26 05:09:20;;;;;;;13.25;6.20;;;;;;;-9.33;100.00;99290.52;1761168;80;21041;-68
2021/12/26 05:11:48;;;;;;;18.25;7.25;;;;;;;-9.30;100.00;99295.97;1761291;81;20983;-67
2021/12/26 05:14:15;;;;;;;15.28;6.47;;;;;;;-9.28;100.00;99286.91;1760984;80;21077;-67
2021/12/26 05:16:44;;;;;;;14.60;7.00;;;;;;;-9.26;100.00;99289.41;1760551;81;21026;-67
2021/12/26 05:19:11;;;;;;;17.15;7.42;;;;;;;-9.26;100.00;99286.77;1761065;80;21085;-67
2021/12/26 05:21:38;;;;;;;15.45;6.42;;;;;;;-9.27;100.00;99286.42;1761334;81;20995;-67
2021/12/26 05:24:05;;;;;;;19.67;7.90;;;;;;;-9.27;100.00;99287.73;1751449;80;21544;-67
2021/12/26 05:26:32;;;;;;;12.35;5.67;;;;;;;-9.30;100.00;99292.02;1761245;81;21607;-67
2021/12/26 05:29:00;;;;;;;16.20;6.35;;;;;;;-9.31;100.00;99295.14;1760930;80;20982;-67
2021/12/26 05:31:26;;;;;;;15.70;6.95;;;;;;;-9.31;100.00;99297.77;1761306;81;21010;-67
2021/12/26 05:33:52;;;;;;;15.03;7.87;;;;;;;-9.33;100.00;99302.88;1761673;80;21512;-67
2021/12/26 05:36:19;;;;;;;15.13;6.53;;;;;;;-9.37;100.00;99312.90;1761435;81;21006;-68
2021/12/26 05:38:45;;;;;;;;;;;;;;;-9.40;100.00;99315.02;1763774;80;21089;-67
2021/12/26 05:41:12;;;;;;;13.88;5.83;;;;;;;-9.43;100.00;99318.80;1760667;81;20106;-67
2021/12/26 05:43:41;;;;;;;16.48;6.12;;;;;;;-9.48;100.00;99314.47;1757000;80;21115;-68
2021/12/26 05:46:07;;;;;;;18.62;7.00;;;;;;;-9.48;100.00;99318.42;1754650;81;21007;-67
2021/12/26 05:48:36;;;;;;;14.43;6.20;;;;;;;-9.47;100.00;99323.21;1738439;81;21114;-67
2021/12/26 05:51:03;;;;;;;15.13;7.08;;;;;;;-9.47;100.00;99317.45;1751318;82;21051;-67
2021/12/26 05:53:40;;;;;;;12.75;6.42;;;;;;;-9.46;100.00;99319.12;1732204;80;21114;-67
2021/12/26 05:56:07;;;;;;;16.65;6.65;;;;;;;-9.45;100.00;99324.70;1748292;82;21065;-67
2021/12/26 05:58:35;;;;;;;15.40;6.15;;;;;;;-9.42;100.00;99332.30;1748541;80;21608;-67
2021/12/26 06:01:02;;;;;;;20.55;7.80;;;;;;;-9.43;100.00;99328.03;1750002;82;21014;-67
2021/12/26 06:03:29;;;;;;;12.80;6.05;;;;;;;-9.42;100.00;99332.81;1752554;80;21066;-67
2021/12/26 06:05:55;;;;;;;16.67;7.47;;;;;;;-9.38;100.00;99338.08;1745508;82;21572;-67
2021/12/26 06:08:23;;;;;;;15.68;8.10;;;;;;;-9.39;100.00;99336.45;1749669;81;21026;-67
2021/12/26 06:10:50;;;;;;;16.02;8.08;;;;;;;-9.40;100.00;99344.02;1748237;81;21964;-67
2021/12/26 06:13:17;;;;;;;16.05;6.78;;;;;;;-9.39;100.00;99345.67;1752523;80;20995;-67
2021/12/26 06:15:43;;;;;;;15.63;6.58;;;;;;;-9.40;100.00;99342.21;1751259;82;21037;-67
2021/12/26 06:18:10;;;;;;;18.50;7.62;;;;;;;-9.38;100.00;99346.82;1745311;80;21041;-67
2021/12/26 06:20:42;;;;;;;17.27;7.03;;;;;;;-9.34;100.00;99351.30;1749847;82;21017;-66
2021/12/26 06:23:23;;;;;;;17.37;7.72;;;;;;;-9.33;100.00;99351.64;1746538;80;21597;-67
2021/12/26 06:25:51;;;;;;;14.68;6.87;;;;;;;-9.30;100.00;99349.52;1711160;82;21527;-67
2021/12/26 06:28:22;;;;;;;13.45;6.70;;;;;;;-9.27;100.00;99355.80;1751434;80;21480;-67
2021/12/26 06:30:59;;;;;;;18.98;7.97;;;;;;;-9.22;100.00;99351.38;1743654;82;21041;-67
2021/12/26 06:33:30;;;;;;;16.77;7.50;;;;;;;-9.19;100.00;99351.06;1738048;81;21453;-67
2021/12/26 06:35:56;;;;;;;17.62;8.40;;;;;;;-9.16;100.00;99349.44;1748910;81;21556;-67
2021/12/26 06:38:44;;;;;;;16.20;6.87;;;;;;;-9.11;100.00;99363.82;1693249;83;21538;-67
2021/12/26 06:41:29;;;;;;;17.12;7.53;;;;;;;-9.09;100.00;99363.16;1694381;84;21075;-66
2021/12/26 06:44:13;;;;;;;16.95;7.75;;;;;;;-9.07;100.00;99361.70;1716986;80;21039;-67
2021/12/26 06:46:47;;;;;;;14.38;7.20;;;;;;;-9.03;100.00;99366.17;1751318;81;21080;-68
2021/12/26 06:49:21;;;;;;;18.23;6.67;;;;;;;-8.98;100.00;99363.38;1750241;80;21066;-67
2021/12/26 06:51:50;;;;;;;18.17;8.43;;;;;;;-8.93;100.00;99374.30;1751109;81;21631;-65
2021/12/26 06:54:17;;;;;;;20.02;8.73;;;;;;;-8.87;100.00;99372.34;1723089;81;21702;-64
2021/12/26 06:56:44;;;;;;;14.95;7.03;;;;;;;-8.83;100.00;99367.58;1752542;82;21055;-67
2021/12/26 06:59:10;;;;;;;14.78;7.08;;;;;;;-8.78;100.00;99359.52;1747021;80;21023;-66
2021/12/26 07:01:37;;;;;;;15.80;6.70;;;;;;;-8.70;100.00;99360.05;1715141;82;21568;-67
2021/12/26 07:04:04;;;;;;;13.85;6.30;;;;;;;-8.64;100.00;99360.73;1752818;80;21086;-67
2021/12/26 07:06:32;;;;;;;16.82;6.92;;;;;;;-8.55;100.00;99361.59;1753006;82;20991;-64
2021/12/26 07:09:00;;;;;;;17.25;7.47;;;;;;;-8.48;100.00;99356.02;1716402;82;21038;-67
2021/12/26 07:11:28;;;;;;;17.50;6.87;;;;;;;-8.37;100.00;99360.52;1714328;83;21083;-66
2021/12/26 07:13:56;;;;;;;17.17;7.62;;;;;;;-8.26;100.00;99362.00;1688668;85;21570;-64
2021/12/26 07:16:23;;;;;;;15.53;7.05;;;;;;;-8.15;100.00;99357.73;1683276;85;21027;-66
2021/12/26 07:18:51;;;;;;;15.55;7.47;;;;;;;-8.04;100.00;99356.08;1696090;84;21150;-66
2021/12/26 07:21:19;;;;;;;15.55;7.05;;;;;;;-7.93;100.00;99357.09;1691763;84;21028;-66
2021/12/26 07:23:47;;;;;;;13.72;7.35;;;;;;;-7.82;100.00;99361.23;1702150;82;21081;-66
2021/12/26 07:26:15;;;;;;;16.65;7.47;;;;;;;-7.70;100.00;99359.44;1704096;84;21079;-66
2021/12/26 07:28:42;;;;;;;;;;;;;;;-7.55;100.00;99362.25;1707087;83;21027;-66
2021/12/26 07:31:13;;;;;;;17.85;7.15;;;;;;;-7.42;100.00;99363.05;1703822;84;20124;-65
2021/12/26 07:33:41;;;;;;;16.62;7.92;;;;;;;-7.36;100.00;99366.35;1705690;83;21557;-66
2021/12/26 07:36:07;;;;;;;;;;;;;;;-7.25;100.00;99373.95;1707030;84;21601;-67
2021/12/26 07:38:41;;;;;;;15.43;7.20;;;;;;;-7.17;100.00;99367.33;1704224;83;20154;-67
2021/12/26 07:41:08;;;;;;;;;;;;;;;-7.02;100.00;99370.95;1707111;84;21078;-66
2021/12/26 07:43:35;;;;;;;15.85;7.37;;;;;;;-6.83;100.00;99373.20;1704657;83;20169;-67
2021/12/26 07:46:04;;;;;;;16.60;8.40;;;;;;;-6.74;100.00;99378.81;1646859;84;21078;-68
2021/12/26 07:48:30;;;;;;;;;;;;;;;-6.61;100.00;99376.94;1693888;85;21134;-67
2021/12/26 07:50:56;;;;;;;16.77;7.67;;;;;;;-6.44;100.00;99379.84;1691478;85;20096;-67
2021/12/26 07:53:41;;;;;;;14.05;7.70;;;;;;;-6.37;100.00;99380.81;1691714;84;21122;-67
2021/12/26 07:56:25;;;;;;;13.90;7.15;;;;;;;-6.21;100.00;99378.59;1642721;87;21151;-67
2021/12/26 07:59:05;;;;;;;15.15;7.87;;;;;;;-6.10;100.00;99384.34;1630050;84;21118;-67
2021/12/26 08:01:49;;;;;;;14.95;7.87;;;;;;;-5.95;100.00;99381.73;1630377;87;21104;-67
2021/12/26 08:04:34;;;;;;;15.95;7.35;;;;;;;-5.84;100.00;99388.44;1674525;84;21118;-67
2021/12/26 08:07:08;;;;;;;15.05;8.23;;;;;;;-5.71;100.00;99381.58;1690411;84;21555;-67
2021/12/26 08:09:34;;;;;;;16.10;8.13;;;;;;;-5.57;100.00;99378.66;1680375;84;21074;-67
2021/12/26 08:12:02;;;;;;;16.10;8.98;;;;;;;-5.41;100.00;99373.70;1691343;85;21112;-67
2021/12/26 08:14:28;;;;;;;;;;;;;;;-5.35;100.00;99367.70;1709895;84;21498;-67
2021/12/26 08:16:54;;;;;;;16.40;8.10;;;;;;;-5.24;100.00;99363.27;1695699;84;20117;-67
2021/12/26 08:19:21;;;;;;;15.98;8.03;;;;;;;-5.16;100.00;99365.86;1681550;84;21573;-67
2021/12/26 08:21:51;;;;;;;15.32;7.72;;;;;;;-5.03;100.00;99366.08;1685854;85;21086;-66
2021/12/26 08:24:16;;;;;;;14.65;8.13;;;;;;;-4.88;100.00;99362.91;1683957;84;21099;-66
2021/12/26 08:26:42;;;;;;;12.15;7.00;;;;;;;-4.77;100.00;99361.14;1683443;85;21051;-66
2021/12/26 08:29:08;;;;;;;15.78;7.90;;;;;;;-4.63;100.00;99357.66;1684701;84;21110;-67
2021/12/26 08:31:35;;;;;;;15.23;8.25;;;;;;;-4.61;100.00;99355.66;1681794;85;21025;-67
2021/12/26 08:34:03;;;;;;;14.75;7.25;;;;;;;-4.58;100.00;99351.80;1688976;83;21046;-65
2021/12/26 08:36:29;;;;;;;13.13;7.45;;;;;;;-4.47;100.00;99359.31;1692355;85;21043;-65
2021/12/26 08:38:56;;;;;;;13.85;7.15;;;;;;;-4.31;100.00;99351.62;1692386;83;21034;-66
2021/12/26 08:41:23;;;;;;;12.85;7.17;;;;;;;-4.11;100.00;99344.73;1692070;85;21572;-65
2021/12/26 08:43:50;;;;;;;11.22;6.37;;;;;;;-3.92;100.00;99341.44;1689316;85;21127;-65
2021/12/26 08:46:16;;;;;;;12.98;7.05;;;;;;;-3.75;100.00;99344.17;1685283;85;21058;-65
2021/12/26 08:48:43;;;;;;;11.85;6.40;;;;;;;-3.62;100.00;99343.49;1689407;83;21556;-65
2021/12/26 08:51:09;;;;;;;11.65;6.35;;;;;;;-3.42;100.00;99347.65;1689853;85;21059;-65
2021/12/26 08:53:36;;;;;;;11.68;6.50;;;;;;;-3.23;100.00;99348.33;1689544;83;21138;-65
2021/12/26 08:56:04;;;;;;;;;;;;;;;-3.15;100.00;99342.84;1691965;85;21549;-65
2021/12/26 08:58:30;;;;;;;12.07;6.30;;;;;;;-3.00;100.00;99343.58;1689730;83;20139;-65
2021/12/26 09:00:57;;;;;;;;;;;;;;;-3.03;100.00;99335.98;1692231;85;21576;-65
2021/12/26 09:03:23;;;;;;;11.33;6.20;;;;;;;-2.99;100.00;99325.77;1689540;83;20176;-65
2021/12/26 09:05:50;;;;;;;13.20;6.75;;;;;;;-2.94;100.00;99330.01;1689871;85;21078;-65
2021/12/26 09:08:16;;;;;;;12.82;6.17;;;;;;;-2.85;100.00;99336.81;1690008;83;21078;-65
2021/12/26 09:10:44;;;;;;;11.45;6.25;;;;;;;-2.66;100.00;99326.80;1689764;85;21510;-65
2021/12/26 09:13:10;;;;;;;;;;;;;;;-2.49;100.00;99331.28;1692334;83;21042;-65
2021/12/26 09:15:37;;;;;;;13.00;6.65;;;;;;;-2.36;100.00;99328.67;1689967;85;20415;-65
2021/12/26 09:18:03;;;;;;;16.02;6.80;;;;;;;-2.33;100.00;99331.76;1689925;85;21026;-65
2021/12/26 09:20:30;;;;;;;15.80;7.22;;;;;;;-2.31;100.00;99338.23;1689370;85;21098;-65
2021/12/26 09:22:57;;;;;;;11.93;6.50;;;;;;;-2.42;100.00;99330.30;1689987;85;21074;-65
2021/12/26 09:25:24;;;;;;;13.38;6.78;;;;;;;-2.41;100.00;99333.79;1690002;83;21019;-65
2021/12/26 09:27:51;;;;;;;10.13;5.97;;;;;;;-2.38;100.00;99328.89;1689664;85;21063;-65
2021/12/26 09:30:17;;;;;;;12.03;6.58;;;;;;;-2.23;100.00;99332.74;1689474;83;21015;-65
2021/12/26 09:32:44;;;;;;;15.25;6.80;;;;;;;-2.01;100.00;99331.06;1689736;85;21101;-65
2021/12/26 09:35:11;;;;;;;14.07;6.80;;;;;;;-1.83;100.00;99322.98;1689793;83;21572;-65
2021/12/26 09:37:37;;;;;;;13.10;6.80;;;;;;;-1.78;100.00;99332.05;1689670;85;21098;-66
2021/12/26 09:40:05;;;;;;;13.20;6.90;;;;;;;-1.78;100.00;99328.05;1689657;83;21023;-66
2021/12/26 09:42:35;;;;;;;11.80;6.25;;;;;;;-1.75;100.00;99328.97;1687350;85;21047;-63
2021/12/26 09:45:01;;;;;;;11.48;6.08;;;;;;;-1.76;100.00;99331.83;1689830;83;21602;-64
2021/12/26 09:47:29;;;;;;;11.22;5.80;;;;;;;-1.85;100.00;99339.22;1687339;83;21079;-64
2021/12/26 09:49:55;;;;;;;9.98;5.42;;;;;;;-1.86;100.00;99338.90;1675357;85;21645;-65
2021/12/26 09:52:22;;;;;;;9.45;5.60;;;;;;;-1.82;100.00;99334.81;1687128;85;21050;-66
2021/12/26 09:54:48;;;;;;;10.65;6.00;;;;;;;-1.67;100.00;99333.30;1689729;83;21146;-66
2021/12/26 09:57:14;;;;;;;10.60;5.97;;;;;;;-1.59;100.00;99332.58;1690054;85;21082;-65
2021/12/26 09:59:43;;;;;;;11.70;6.12;;;;;;;-1.69;100.00;99338.00;1752820;80;21090;-66
2021/12/26 10:02:11;;;;;;;10.25;6.10;;;;;;;-1.88;100.00;99333.46;1722326;82;21058;-66
2021/12/26 10:04:38;;;;;;;9.58;5.47;;;;;;;-1.98;100.00;99331.16;1748072;81;21620;-65
2021/12/26 10:07:11;;;;;;;10.45;6.00;;;;;;;-1.94;100.00;99324.91;1752236;82;21016;-65
2021/12/26 10:09:39;;;;;;;11.45;5.75;;;;;;;-1.87;100.00;99327.08;1752902;80;21097;-65
2021/12/26 10:12:09;;;;;;;10.05;5.33;;;;;;;-1.87;100.00;99320.41;1752203;81;21014;-65
2021/12/26 10:14:43;;;;;;;11.05;5.15;;;;;;;-1.87;100.00;99324.41;1752869;80;21101;-64
2021/12/26 10:17:08;;;;;;;9.60;5.50;;;;;;;-1.83;100.00;99320.32;1751471;82;21596;-65
2021/12/26 10:19:40;;;;;;;11.95;6.15;;;;;;;-1.80;100.00;99318.07;1741558;80;21005;-64
2021/12/26 10:22:07;;;;;;;9.98;5.55;;;;;;;-1.92;100.00;99322.37;1752759;82;21557;-65
2021/12/26 10:24:39;;;;;;;10.23;5.37;;;;;;;-2.05;100.00;99314.31;1752872;80;21109;-64
2021/12/26 10:27:11;;;;;;;10.65;5.60;;;;;;;-2.17;100.00;99317.27;1752696;82;21102;-65
2021/12/26 10:29:44;;;;;;;12.55;6.60;;;;;;;-2.29;100.00;99315.68;1752916;80;21065;-64
2021/12/26 10:32:15;;;;;;;13.20;6.47;;;;;;;-2.37;100.00;99319.05;1751270;82;21002;-64
2021/12/26 10:34:52;;;;;;;10.45;5.58;;;;;;;-2.33;100.00;99317.09;1752636;80;21066;-64
2021/12/26 10:37:30;;;;;;;11.48;5.55;;;;;;;-2.28;100.00;99313.84;1752961;82;21700;-64
2021/12/26 10:40:01;;;;;;;11.68;5.00;;;;;;;-2.19;100.00;99313.45;1749596;80;21591;-64
2021/12/26 10:42:30;;;;;;;8.98;5.22;;;;;;;-2.12;100.00;99318.80;1715257;83;21023;-64
2021/12/26 10:45:02;;;;;;;8.93;5.12;;;;;;;-2.03;100.00;99312.28;1691428;83;21644;-65
2021/12/26 10:47:31;;;;;;;9.63;4.97;;;;;;;-1.90;100.00;99316.31;1685950;84;21075;-65
2021/12/26 10:50:01;;;;;;;8.65;4.75;;;;;;;-1.83;100.00;99318.48;1680221;84;21048;-65
2021/12/26 10:52:33;;;;;;;11.20;5.40;;;;;;;-1.83;100.00;99307.81;1672878;85;21003;-65
2021/12/26 10:55:14;;;;;;;8.13;4.72;;;;;;;-1.76;100.00;99311.81;1668415;84;21574;-65
2021/12/26 10:57:48;;;;;;;11.10;5.60;;;;;;;-1.65;100.00;99312.55;1668914;86;21027;-64
2021/12/26 11:00:21;;;;;;;8.98;5.15;;;;;;;-1.63;100.00;99306.52;1676738;84;21074;-65
2021/12/26 11:02:58;;;;;;;9.20;5.03;;;;;;;-1.54;100.00;99316.78;1688147;84;21062;-65
2021/12/26 11:05:35;;;;;;;11.55;5.45;;;;;;;-1.44;100.00;99311.54;1658532;86;21098;-64
2021/12/26 11:08:05;;;;;;;9.33;5.08;;;;;;;-1.46;100.00;99318.95;1642735;86;21406;-65
2021/12/26 11:10:39;;;;;;;10.40;5.05;;;;;;;-1.51;100.00;99315.03;1670667;84;21490;-65
2021/12/26 11:13:08;;;;;;;11.20;5.47;;;;;;;-1.45;100.00;99307.25;1685145;85;21119;-65
2021/12/26 11:15:38;;;;;;;11.15;5.37;;;;;;;-1.49;100.00;99317.52;1681769;85;21024;-65
2021/12/26 11:18:08;;;;;;;12.98;5.25;;;;;;;-1.54;100.00;99311.95;1671157;85;21080;-69
2021/12/26 11:20:42;;;;;;;11.68;5.35;;;;;;;-1.58;100.00;99311.55;1673795;85;21479;-69
2021/12/26 11:23:13;;;;;;;10.48;5.50;;;;;;;-1.61;100.00;99306.61;1679248;84;21047;-70
2021/12/26 11:25:47;;;;;;;10.05;5.47;;;;;;;-1.60;100.00;99311.45;1675900;85;21514;-68
2021/12/26 11:28:17;;;;;;;10.80;5.75;;;;;;;-1.58;100.00;99308.88;1665875;84;21754;-69
2021/12/26 11:30:44;;;;;;;9.00;4.72;;;;;;;-1.63;100.00;99313.98;1698940;83;21051;-69
2021/12/26 11:33:12;;;;;;;10.58;5.50;;;;;;;-1.61;100.00;99305.28;1680661;83;21565;-69
2021/12/26 11:35:40;;;;;;;8.55;4.83;;;;;;;-1.64;100.00;99304.86;1677554;85;21102;-69
2021/12/26 11:38:10;;;;;;;8.90;5.22;;;;;;;-1.64;100.00;99304.86;1677907;85;21078;-69
2021/12/26 11:40:58;;;;;;;10.60;5.08;;;;;;;-1.65;100.00;99311.22;1674742;85;20999;-74
2021/12/26 11:44:15;;;;;;;9.70;5.17;;;;;;;-1.73;100.00;99320.23;1632018;84;21550;-68
2021/12/26 11:47:57;;;;;;;11.50;5.50;;;;;;;-1.81;100.00;99315.11;1684060;84;21074;-70
2021/12/26 11:51:04;;;;;;;12.23;5.80;;;;;;;-1.90;100.00;99316.31;1699470;84;21038;-71
2021/12/26 11:54:03;;;;;;;9.93;5.35;;;;;;;-1.98;100.00;99318.36;1694766;83;21066;-69